createdAt,value
2023-04-15T00:01:06.492Z,10.05
2023-04-15T00:06:13.709Z,10.07
2023-04-15T00:11:20.760Z,10.07
2023-04-15T00:16:28.477Z,10.09
2023-04-15T00:21:35.815Z,10.08
2023-04-15T00:26:42.747Z,10.06
2023-04-15T00:31:49.838Z,10.05
2023-04-15T00:36:56.819Z,10.03
2023-04-15T00:42:03.996Z,9.98
2023-04-15T00:47:12.516Z,9.88
2023-04-15T00:52:19.460Z,9.78
2023-04-15T00:57:27.214Z,9.74
2023-04-15T01:02:35.640Z,9.75
2023-04-15T01:07:42.702Z,9.77
2023-04-15T01:12:49.939Z,9.81
2023-04-15T01:17:57.957Z,9.82
2023-04-15T01:23:05.163Z,9.83
2023-04-15T01:28:12.624Z,9.86
2023-04-15T01:33:19.689Z,9.89
2023-04-15T01:38:28.078Z,9.92
2023-04-15T01:43:34.959Z,9.93
2023-04-15T01:48:42.222Z,9.94
2023-04-15T01:53:49.217Z,9.91
2023-04-15T01:58:56.285Z,9.90
2023-04-15T02:04:03.451Z,9.91
2023-04-15T02:09:11.725Z,9.88
2023-04-15T02:14:18.606Z,9.89
2023-04-15T02:19:26.168Z,9.90
2023-04-15T02:24:33.437Z,9.89
2023-04-15T02:29:40.626Z,9.79
2023-04-15T02:34:48.404Z,9.70
2023-04-15T02:39:57.218Z,9.61
2023-04-15T02:45:04.312Z,9.52
2023-04-15T02:50:15.208Z,9.41
2023-04-15T02:55:22.778Z,9.31
2023-04-15T03:00:30.330Z,9.21
2023-04-15T03:05:39.281Z,9.13
2023-04-15T03:10:46.318Z,9.07
2023-04-15T03:15:53.397Z,9.03
2023-04-15T03:21:02.749Z,8.97
2023-04-15T03:26:11.181Z,8.89
2023-04-15T03:31:18.384Z,8.83
2023-04-15T03:36:26.162Z,8.79
2023-04-15T03:41:33.829Z,8.77
2023-04-15T03:46:41.403Z,8.74
2023-04-15T03:51:48.616Z,8.71
2023-04-15T03:56:56.040Z,8.68
2023-04-15T04:02:03.114Z,8.59
2023-04-15T04:07:10.304Z,8.47
2023-04-15T04:12:17.244Z,8.33
2023-04-15T04:17:24.295Z,8.18
2023-04-15T04:22:31.490Z,8.06
2023-04-15T04:27:38.544Z,7.96
2023-04-15T04:32:45.618Z,7.89
2023-04-15T04:37:53.844Z,7.83
2023-04-15T04:43:01.139Z,7.79
2023-04-15T04:48:10.316Z,7.75
2023-04-15T04:53:18.583Z,7.69
2023-04-15T04:58:25.965Z,7.67
2023-04-15T05:03:33.154Z,7.66
2023-04-15T05:08:41.371Z,7.67
2023-04-15T05:13:48.391Z,7.73
2023-04-15T05:18:55.726Z,7.76
2023-04-15T05:24:02.679Z,7.80
2023-04-15T05:29:09.650Z,7.83
2023-04-15T05:34:17.566Z,7.84
2023-04-15T05:39:24.643Z,7.85
2023-04-15T05:44:31.734Z,7.88
2023-04-15T05:49:38.767Z,7.92
2023-04-15T05:54:45.842Z,8.00
2023-04-15T05:59:52.908Z,8.11
2023-04-15T06:05:01.179Z,8.24
2023-04-15T06:10:11.050Z,8.39
2023-04-15T06:15:18.057Z,8.53
2023-04-15T06:20:25.672Z,8.67
2023-04-15T06:25:32.630Z,8.75
2023-04-15T06:30:40.158Z,8.79
2023-04-15T06:35:47.612Z,8.89
2023-04-15T06:40:54.606Z,8.92
2023-04-15T06:46:01.757Z,8.90
2023-04-15T06:51:09.163Z,8.90
2023-04-15T06:56:16.458Z,8.96
2023-04-15T07:01:23.614Z,9.06
2023-04-15T07:06:30.592Z,9.13
2023-04-15T07:11:37.729Z,9.16
2023-04-15T07:16:45.063Z,9.21
2023-04-15T07:21:53.421Z,9.23
2023-04-15T07:27:01.287Z,9.28
2023-04-15T07:32:11.416Z,9.29
2023-04-15T07:37:19.219Z,9.38
2023-04-15T07:42:26.628Z,9.40
2023-04-15T07:47:33.847Z,9.50
2023-04-15T07:52:40.961Z,9.56
2023-04-15T07:57:48.569Z,9.72
2023-04-15T08:02:57.550Z,9.99
2023-04-15T08:08:04.749Z,10.27
2023-04-15T08:13:11.825Z,10.53
2023-04-15T08:18:18.786Z,10.56
2023-04-15T08:23:25.808Z,10.67
2023-04-15T08:28:33.080Z,10.86
2023-04-15T08:33:40.251Z,11.16
2023-04-15T08:38:47.262Z,11.36
2023-04-15T08:44:03.246Z,11.53
2023-04-15T08:49:13.377Z,11.83
2023-04-15T08:54:21.467Z,12.07
2023-04-15T08:59:28.532Z,12.33
2023-04-15T09:04:36.101Z,12.52
2023-04-15T09:09:43.039Z,12.74
2023-04-15T09:14:50.060Z,12.87
2023-04-15T09:20:11.390Z,12.96
2023-04-15T09:25:34.270Z,13.11
2023-04-15T09:30:46.618Z,13.03
2023-04-15T09:36:03.597Z,13.08
2023-04-15T09:41:20.812Z,13.20
2023-04-15T09:46:44.680Z,13.41
2023-04-15T09:52:04.541Z,13.58
2023-04-15T09:57:12.388Z,13.44
2023-04-15T10:02:21.984Z,13.41
2023-04-15T10:07:29.988Z,13.31
2023-04-15T10:12:38.222Z,13.18
2023-04-15T10:17:46.900Z,13.48
2023-04-15T10:22:54.501Z,13.80
2023-04-15T10:28:02.577Z,14.19
2023-04-15T10:33:11.335Z,14.41
2023-04-15T10:38:38.602Z,14.33
2023-04-15T10:43:51.647Z,14.31
2023-04-15T10:48:58.646Z,14.70
2023-04-15T10:54:10.353Z,14.92
2023-04-15T10:59:20.363Z,14.91
2023-04-15T11:04:44.817Z,15.10
2023-04-15T11:09:51.868Z,15.16
2023-04-15T11:15:00.094Z,15.32
2023-04-15T11:20:09.842Z,15.32
2023-04-15T11:25:26.128Z,15.48
2023-04-15T11:30:34.715Z,15.57
2023-04-15T11:35:44.250Z,15.49
2023-04-15T11:40:52.448Z,15.78
2023-04-15T11:46:01.363Z,15.79
2023-04-15T11:51:09.151Z,15.60
2023-04-15T11:56:21.161Z,15.26
2023-04-15T12:01:36.755Z,15.12
2023-04-15T12:06:43.643Z,15.23
2023-04-15T12:11:53.024Z,15.18
2023-04-15T12:17:02.087Z,14.94
2023-04-15T12:22:12.208Z,14.87
2023-04-15T12:27:19.861Z,14.82
2023-04-15T12:32:27.382Z,14.98
2023-04-15T12:37:34.253Z,15.04
2023-04-15T12:42:41.507Z,15.07
2023-04-15T12:47:48.491Z,15.16
2023-04-15T12:52:55.405Z,15.45
2023-04-15T12:58:02.576Z,15.64
2023-04-15T13:03:09.597Z,15.80
2023-04-15T13:08:16.611Z,15.98
2023-04-15T13:13:23.701Z,16.00
2023-04-15T13:18:31.393Z,16.00
2023-04-15T13:23:38.406Z,16.15
2023-04-15T13:28:45.748Z,16.15
2023-04-15T13:33:52.683Z,16.67
2023-04-15T13:39:00.169Z,18.19
2023-04-15T13:44:07.320Z,19.71
2023-04-15T13:49:15.859Z,20.69
2023-04-15T13:54:22.802Z,20.97
2023-04-15T13:59:30.474Z,20.63
2023-04-15T14:04:37.616Z,20.78
2023-04-15T14:09:44.545Z,20.49
2023-04-15T14:14:51.473Z,20.50
2023-04-15T14:19:58.339Z,20.88
2023-04-15T14:25:06.537Z,21.93
2023-04-15T14:30:14.655Z,22.76
2023-04-15T14:35:21.862Z,23.14
2023-04-15T14:40:28.884Z,23.22
2023-04-15T14:45:36.485Z,23.30
2023-04-15T14:50:43.826Z,23.30
2023-04-15T14:55:50.711Z,23.57
2023-04-15T15:00:57.798Z,23.96
2023-04-15T15:06:04.690Z,24.07
2023-04-15T15:11:11.576Z,23.83
2023-04-15T15:16:18.590Z,23.39
2023-04-15T15:21:27.176Z,23.01
2023-04-15T15:26:34.305Z,23.14
2023-04-15T15:31:41.353Z,22.58
2023-04-15T15:36:48.228Z,21.98
2023-04-15T15:41:55.234Z,22.22
2023-04-15T15:47:02.315Z,22.01
2023-04-15T15:52:09.820Z,21.86
2023-04-15T15:57:16.891Z,21.75
2023-04-15T16:02:40.100Z,21.12
2023-04-15T16:07:50.931Z,20.33
2023-04-15T16:12:57.772Z,19.51
2023-04-15T16:18:04.978Z,18.74
2023-04-15T16:23:15.976Z,18.17
2023-04-15T16:28:26.904Z,17.59
2023-04-15T16:33:34.899Z,16.94
2023-04-15T16:38:41.838Z,16.46
2023-04-15T16:43:48.676Z,16.06
2023-04-15T16:48:55.556Z,15.73
2023-04-15T16:54:02.664Z,15.49
2023-04-15T16:59:10.081Z,15.27
2023-04-15T17:04:20.748Z,15.01
2023-04-15T17:09:27.806Z,14.77
2023-04-15T17:14:35.239Z,14.51
2023-04-15T17:19:42.181Z,14.30
2023-04-15T17:24:49.044Z,14.07
2023-04-15T17:29:56.266Z,13.85
2023-04-15T17:35:06.079Z,13.62
2023-04-15T17:40:14.985Z,13.34
2023-04-15T17:45:21.875Z,13.11
2023-04-15T17:50:28.973Z,12.89
2023-04-15T17:55:36.453Z,12.66
2023-04-15T18:00:43.281Z,12.47
2023-04-15T18:05:50.166Z,12.27
2023-04-15T18:10:57.549Z,12.11
2023-04-15T18:16:04.622Z,11.94
2023-04-15T18:21:13.581Z,11.79
2023-04-15T18:26:21.650Z,11.63
2023-04-15T18:31:28.573Z,11.49
2023-04-15T18:36:35.826Z,11.36
2023-04-15T18:41:42.738Z,11.26
2023-04-15T18:46:51.296Z,11.17
2023-04-15T18:51:58.226Z,11.09
2023-04-15T18:57:06.676Z,11.01
2023-04-15T19:02:14.021Z,10.91
2023-04-15T19:07:21.048Z,10.82
2023-04-15T19:12:28.267Z,10.74
2023-04-15T19:17:35.740Z,10.66
2023-04-15T19:22:43.504Z,10.58
2023-04-15T19:27:50.357Z,10.50
2023-04-15T19:32:57.598Z,10.40
2023-04-15T19:38:05.738Z,10.30
2023-04-15T19:43:12.786Z,10.22
2023-04-15T19:48:19.858Z,10.16
2023-04-15T19:53:26.710Z,10.08
2023-04-15T19:58:33.656Z,9.99
2023-04-15T20:03:41.178Z,9.92
2023-04-15T20:08:48.325Z,9.87
2023-04-15T20:13:55.578Z,9.82
2023-04-15T20:19:07.614Z,9.75
2023-04-15T20:24:15.070Z,9.71
2023-04-15T20:29:22.457Z,9.70
2023-04-15T20:34:29.657Z,9.68
2023-04-15T20:39:36.754Z,9.66
2023-04-15T20:44:43.772Z,9.60
2023-04-15T20:49:50.870Z,9.50
2023-04-15T20:54:57.780Z,9.41
2023-04-15T21:00:05.057Z,9.32
2023-04-15T21:05:12.287Z,9.21
2023-04-15T21:10:19.159Z,9.14
2023-04-15T21:15:25.998Z,9.05
2023-04-15T21:20:33.016Z,8.99
2023-04-15T21:25:39.811Z,8.93
2023-04-15T21:30:47.370Z,8.88
2023-04-15T21:35:55.542Z,8.84
2023-04-15T21:41:05.958Z,8.77
2023-04-15T21:46:22.470Z,8.70
2023-04-15T21:51:32.766Z,8.60
2023-04-15T21:56:39.672Z,8.49
2023-04-15T22:01:47.473Z,8.41
2023-04-15T22:06:55.766Z,8.35
2023-04-15T22:12:04.712Z,8.30
2023-04-15T22:17:11.662Z,8.26
2023-04-15T22:22:18.760Z,8.25
2023-04-15T22:27:26.869Z,8.26
2023-04-15T22:32:33.889Z,8.24
2023-04-15T22:37:41.065Z,8.25
2023-04-15T22:42:48.490Z,8.27
2023-04-15T22:47:55.548Z,8.23
2023-04-15T22:53:02.427Z,8.22
2023-04-15T22:58:09.331Z,8.20
2023-04-15T23:03:16.281Z,8.20
2023-04-15T23:08:24.989Z,8.21
2023-04-15T23:13:32.318Z,8.19
2023-04-15T23:18:39.306Z,8.13
2023-04-15T23:23:46.334Z,8.06
2023-04-15T23:28:53.174Z,7.99
2023-04-15T23:34:00.161Z,7.92
2023-04-15T23:39:07.343Z,7.81
2023-04-15T23:44:14.453Z,7.67
2023-04-15T23:49:21.446Z,7.54
2023-04-15T23:54:28.481Z,7.36
2023-04-15T23:59:35.507Z,7.21
